Time;durP1;ratioP1;P1;durP2;ratioP2;P2;SDS_P1;SDS_P2;PMS_P1;PMS_P2;Temp;Humidity;BMP_temperature;BMP_pressure;BME280_temperature;BME280_humidity;BME280_pressure;Samples;Min_cycle;Max_cycle;Signal;HPM_P1;HPM_P2
2022/09/08 00:00:39;;;;;;;47.83;8.77;;;;;;;;;;4973495;28;20484;-52
2022/09/08 00:03:07;;;;;;;65.88;11.50;;;;;;;;;;4976545;28;20023;-48
2022/09/08 00:05:36;;;;;;;74.15;12.68;;;;;;;;;;4977017;28;20369;-48
2022/09/08 00:08:03;;;;;;;73.68;14.65;;;;;;;;;;4974949;28;20594;-50
2022/09/08 00:10:31;;;;;;;66.97;13.85;;;;;;;;;;4976583;28;20066;-56
2022/09/08 00:13:06;;;;;;;64.43;13.52;;;;;;;;;;4971982;28;20500;-52
2022/09/08 00:15:41;;;;;;;77.07;14.43;;;;;;;;;;4965482;28;20043;-54
2022/09/08 00:18:09;;;;;;;78.40;13.88;;;;;;;;;;4976259;28;20034;-51
2022/09/08 00:20:36;;;;;;;65.55;14.60;;;;;;;;;;4976886;28;20077;-52
2022/09/08 00:23:03;;;;;;;71.72;14.20;;;;;;;;;;4976005;28;20432;-51
2022/09/08 00:25:30;;;;;;;57.75;12.55;;;;;;;;;;4972794;28;20113;-51
2022/09/08 00:31:04;;;;;;;65.95;13.35;;;;;;;;;;4969527;28;20077;-50
2022/09/08 00:33:32;;;;;;;59.80;13.25;;;;;;;;;;4973722;28;20043;-53
2022/09/08 00:36:04;;;;;;;62.60;12.50;;;;;;;;;;4973699;28;20030;-51
2022/09/08 00:38:36;;;;;;;56.15;12.55;;;;;;;;;;4972715;28;20137;-51
2022/09/08 00:41:11;;;;;;;62.20;12.55;;;;;;;;;;4974371;28;20041;-52
2022/09/08 00:43:42;;;;;;;53.10;11.98;;;;;;;;;;4973697;28;20030;-57
2022/09/08 00:46:22;;;;;;;61.08;11.50;;;;;;;;;;4974883;28;20022;-57
2022/09/08 00:49:16;;;;;;;56.88;12.00;;;;;;;;;;4974629;28;20045;-58
2022/09/08 00:51:46;;;;;;;47.90;11.50;;;;;;;;;;4952736;28;20035;-57
2022/09/08 00:54:17;;;;;;;59.60;11.23;;;;;;;;;;4974106;28;20118;-55
2022/09/08 00:56:48;;;;;;;53.50;11.82;;;;;;;;;;4973215;28;20031;-58
2022/09/08 00:59:38;;;;;;;55.25;12.13;;;;;;;;;;4972744;28;20058;-56
2022/09/08 01:02:23;;;;;;;48.45;11.90;;;;;;;;;;4969720;28;20026;-56
2022/09/08 01:04:55;;;;;;;52.17;11.23;;;;;;;;;;4973680;28;20554;-56
2022/09/08 01:13:22;;;;;;;55.85;11.32;;;;;;;;;;4972673;28;20125;-49
2022/09/08 01:15:50;;;;;;;53.55;11.05;;;;;;;;;;4974971;28;20039;-52
2022/09/08 01:18:17;;;;;;;50.50;11.20;;;;;;;;;;4974603;28;20034;-51
2022/09/08 01:20:51;;;;;;;42.58;11.32;;;;;;;;;;4974143;28;20093;-47
2022/09/08 01:23:19;;;;;;;45.30;10.18;;;;;;;;;;4974574;28;20035;-52
2022/09/08 01:26:06;;;;;;;44.20;11.73;;;;;;;;;;4974785;28;20034;-49
2022/09/08 01:28:44;;;;;;;52.88;12.90;;;;;;;;;;4974450;28;20030;-51
2022/09/08 01:31:13;;;;;;;54.38;12.85;;;;;;;;;;4974513;28;20039;-49
2022/09/08 01:33:40;;;;;;;57.45;13.95;;;;;;;;;;4974506;28;20177;-52
2022/09/08 01:36:09;;;;;;;63.22;15.20;;;;;;;;;;4974571;28;20477;-49
2022/09/08 01:38:36;;;;;;;71.38;15.70;;;;;;;;;;4974263;28;20047;-49
2022/09/08 01:41:04;;;;;;;65.13;17.83;;;;;;;;;;4972707;28;20026;-51
2022/09/08 01:43:31;;;;;;;78.97;17.35;;;;;;;;;;4974119;28;20494;-50
2022/09/08 01:45:59;;;;;;;79.55;18.02;;;;;;;;;;4974303;28;20030;-49
2022/09/08 01:48:27;;;;;;;81.55;20.13;;;;;;;;;;4974382;28;20031;-52
2022/09/08 01:50:59;;;;;;;85.82;20.60;;;;;;;;;;4974355;28;20070;-49
2022/09/08 01:53:26;;;;;;;87.35;22.08;;;;;;;;;;4956680;28;20030;-53
2022/09/08 01:55:54;;;;;;;91.57;21.77;;;;;;;;;;4973346;28;20128;-54
2022/09/08 01:58:25;;;;;;;79.15;20.38;;;;;;;;;;4968803;28;20042;-55
2022/09/08 02:00:53;;;;;;;83.80;20.60;;;;;;;;;;4955275;28;20037;-57
2022/09/08 02:03:21;;;;;;;73.47;19.95;;;;;;;;;;4969682;28;20085;-56
2022/09/08 02:05:48;;;;;;;77.65;18.40;;;;;;;;;;4968517;28;20026;-57
2022/09/08 02:08:15;;;;;;;62.80;16.70;;;;;;;;;;4972441;28;20034;-57
2022/09/08 02:10:43;;;;;;;75.65;17.92;;;;;;;;;;4947259;28;20437;-58
2022/09/08 02:13:11;;;;;;;76.63;18.05;;;;;;;;;;4968032;28;20035;-58
2022/09/08 02:15:46;;;;;;;65.68;16.77;;;;;;;;;;4962778;28;20113;-59
2022/09/08 02:18:13;;;;;;;75.55;17.65;;;;;;;;;;4968045;28;20169;-54
2022/09/08 02:20:41;;;;;;;54.28;15.27;;;;;;;;;;4972456;28;20038;-57
2022/09/08 02:23:08;;;;;;;58.20;15.60;;;;;;;;;;4954672;28;20026;-59
2022/09/08 02:25:36;;;;;;;58.47;15.07;;;;;;;;;;4969796;28;20061;-58
2022/09/08 02:28:04;;;;;;;64.22;15.25;;;;;;;;;;4972803;28;20029;-56
2022/09/08 02:30:36;;;;;;;57.30;15.07;;;;;;;;;;4972588;28;20077;-60
2022/09/08 02:33:06;;;;;;;;;;;;;;;;;;4964368;28;20022;-58
2022/09/08 02:35:36;;;;;;;55.33;15.38;;;;;;;;;;4972483;28;19906;-57
2022/09/08 02:38:10;;;;;;;61.10;16.98;;;;;;;;;;4952929;28;20047;-56
2022/09/08 02:40:46;;;;;;;54.30;16.67;;;;;;;;;;4962516;28;20047;-57
2022/09/08 02:43:22;;;;;;;60.60;17.60;;;;;;;;;;4949727;28;20035;-57
2022/09/08 02:45:50;;;;;;;73.27;19.47;;;;;;;;;;4947565;29;20487;-52
2022/09/08 02:48:23;;;;;;;62.33;17.67;;;;;;;;;;4949864;29;20338;-57
2022/09/08 02:50:52;;;;;;;66.68;18.70;;;;;;;;;;4966896;28;20031;-59
2022/09/08 02:53:21;;;;;;;57.10;18.25;;;;;;;;;;4954362;29;20378;-59
2022/09/08 02:55:55;;;;;;;65.22;18.55;;;;;;;;;;4952385;29;20027;-59
2022/09/08 02:58:21;;;;;;;;;;;;;;;;;;4952802;28;20035;-53
2022/09/08 03:00:48;;;;;;;64.45;16.88;;;;;;;;;;4949686;28;19958;-52
2022/09/08 03:03:16;;;;;;;44.03;14.40;;;;;;;;;;4955924;28;20082;-55
2022/09/08 03:05:46;;;;;;;55.30;14.68;;;;;;;;;;4953718;28;20126;-59
2022/09/08 03:08:13;;;;;;;61.58;14.60;;;;;;;;;;4955289;28;20019;-53
2022/09/08 03:10:40;;;;;;;45.13;13.80;;;;;;;;;;4951684;28;20070;-49
2022/09/08 03:13:07;;;;;;;52.90;14.75;;;;;;;;;;4955836;28;20031;-56
2022/09/08 03:15:35;;;;;;;72.78;14.60;;;;;;;;;;4952439;28;20114;-55
2022/09/08 03:18:07;;;;;;;48.03;12.90;;;;;;;;;;4952191;28;20031;-57
2022/09/08 03:20:45;;;;;;;50.67;13.32;;;;;;;;;;4951393;29;20037;-58
2022/09/08 03:23:35;;;;;;;45.85;12.52;;;;;;;;;;4950517;28;20035;-53
2022/09/08 03:26:06;;;;;;;48.95;12.98;;;;;;;;;;4953948;28;20066;-57
2022/09/08 03:28:34;;;;;;;42.72;11.75;;;;;;;;;;4952424;28;20493;-58
2022/09/08 03:31:02;;;;;;;45.35;12.07;;;;;;;;;;4953630;28;20417;-55
2022/09/08 03:33:29;;;;;;;55.47;12.52;;;;;;;;;;4953176;29;20031;-57
2022/09/08 03:36:03;;;;;;;45.88;12.45;;;;;;;;;;4956448;28;20023;-58
2022/09/08 03:38:55;;;;;;;47.08;11.68;;;;;;;;;;4967578;28;20061;-57
2022/09/08 03:41:25;;;;;;;39.65;12.65;;;;;;;;;;4977326;28;20023;-58
2022/09/08 03:43:58;;;;;;;50.92;11.35;;;;;;;;;;4961909;28;20026;-57
2022/09/08 03:46:29;;;;;;;45.70;12.10;;;;;;;;;;4979325;28;20085;-58
2022/09/08 03:48:56;;;;;;;42.22;10.70;;;;;;;;;;4977867;28;20101;-59
2022/09/08 03:51:27;;;;;;;36.08;10.30;;;;;;;;;;4981641;28;20082;-58
2022/09/08 03:56:52;;;;;;;44.47;9.88;;;;;;;;;;4960463;28;20384;-56
2022/09/08 03:59:19;;;;;;;36.72;10.80;;;;;;;;;;4978724;28;20037;-54
2022/09/08 04:01:46;;;;;;;35.72;10.00;;;;;;;;;;4979683;28;20042;-51
2022/09/08 04:04:14;;;;;;;35.10;10.00;;;;;;;;;;4979737;28;20098;-56
2022/09/08 04:06:41;;;;;;;30.65;9.45;;;;;;;;;;4962175;28;20105;-50
2022/09/08 04:09:08;;;;;;;31.25;9.90;;;;;;;;;;4962357;28;20125;-50
2022/09/08 04:11:35;;;;;;;33.65;9.90;;;;;;;;;;4979637;28;20023;-53
2022/09/08 04:14:02;;;;;;;34.13;9.50;;;;;;;;;;4979848;28;20477;-49
2022/09/08 04:16:30;;;;;;;34.70;9.68;;;;;;;;;;4962390;28;20027;-50
2022/09/08 04:18:57;;;;;;;27.45;8.02;;;;;;;;;;4979779;28;20532;-53
2022/09/08 04:21:23;;;;;;;25.60;9.20;;;;;;;;;;4978281;28;20082;-52
2022/09/08 04:23:50;;;;;;;31.80;9.23;;;;;;;;;;4979510;28;20037;-52
2022/09/08 04:26:17;;;;;;;35.75;9.57;;;;;;;;;;4979795;28;20110;-56
2022/09/08 04:28:44;;;;;;;28.15;8.93;;;;;;;;;;4979686;28;20555;-55
2022/09/08 04:31:13;;;;;;;29.00;7.90;;;;;;;;;;4979400;28;20030;-54
2022/09/08 04:33:40;;;;;;;25.05;7.82;;;;;;;;;;4979654;28;20540;-55
2022/09/08 04:36:15;;;;;;;25.30;7.88;;;;;;;;;;4978515;28;20069;-57
2022/09/08 04:38:42;;;;;;;29.45;8.80;;;;;;;;;;4978868;28;20069;-52
2022/09/08 04:41:10;;;;;;;24.80;8.05;;;;;;;;;;4979435;28;20057;-55
2022/09/08 04:43:37;;;;;;;25.08;8.18;;;;;;;;;;4979694;28;20489;-55
2022/09/08 04:46:05;;;;;;;27.38;8.07;;;;;;;;;;4979562;28;20030;-51
2022/09/08 04:48:33;;;;;;;24.83;7.70;;;;;;;;;;4977986;28;20034;-50
2022/09/08 04:51:00;;;;;;;26.80;8.05;;;;;;;;;;4983488;28;20146;-50
2022/09/08 04:53:28;;;;;;;20.42;7.63;;;;;;;;;;4984900;28;20034;-49
2022/09/08 04:55:55;;;;;;;22.73;7.80;;;;;;;;;;4982736;28;20057;-48
2022/09/08 04:58:22;;;;;;;21.52;7.90;;;;;;;;;;4984323;28;20038;-52
2022/09/08 05:00:49;;;;;;;23.63;7.35;;;;;;;;;;4984439;28;20058;-48
2022/09/08 05:03:17;;;;;;;28.92;7.78;;;;;;;;;;4985135;28;20390;-55
2022/09/08 05:05:44;;;;;;;21.02;7.75;;;;;;;;;;4978766;28;20370;-54
2022/09/08 05:08:11;;;;;;;20.60;7.13;;;;;;;;;;4976121;28;20035;-54
2022/09/08 05:10:37;;;;;;;19.33;6.35;;;;;;;;;;4974566;28;20424;-48
2022/09/08 05:13:04;;;;;;;22.10;7.70;;;;;;;;;;4976061;28;20508;-48
2022/09/08 05:15:31;;;;;;;21.88;7.28;;;;;;;;;;4975976;28;20019;-49
2022/09/08 05:17:58;;;;;;;24.83;7.43;;;;;;;;;;4976119;28;20039;-48
2022/09/08 05:20:25;;;;;;;26.08;8.10;;;;;;;;;;4975870;28;20030;-48
2022/09/08 05:22:52;;;;;;;23.98;6.88;;;;;;;;;;4975663;28;20504;-48
2022/09/08 05:25:19;;;;;;;21.70;6.43;;;;;;;;;;4958714;28;20023;-49
2022/09/08 05:27:48;;;;;;;17.90;6.70;;;;;;;;;;4974458;28;20082;-56
2022/09/08 05:30:15;;;;;;;22.10;7.55;;;;;;;;;;4975580;28;20031;-57
2022/09/08 05:32:42;;;;;;;20.20;6.57;;;;;;;;;;4975769;28;20507;-56
2022/09/08 05:35:09;;;;;;;18.25;6.22;;;;;;;;;;4975672;28;20073;-56
2022/09/08 05:37:36;;;;;;;16.98;6.22;;;;;;;;;;4975432;28;20026;-57
2022/09/08 05:40:03;;;;;;;19.55;7.00;;;;;;;;;;4975454;28;20035;-56
2022/09/08 05:42:30;;;;;;;16.15;5.47;;;;;;;;;;4975636;28;20035;-57
2022/09/08 05:44:57;;;;;;;17.95;5.88;;;;;;;;;;4974121;28;20030;-53
2022/09/08 05:47:24;;;;;;;16.75;5.72;;;;;;;;;;4975552;28;20393;-55
2022/09/08 05:49:52;;;;;;;15.65;6.13;;;;;;;;;;4975332;28;20251;-55
2022/09/08 05:52:19;;;;;;;15.20;5.72;;;;;;;;;;4975456;28;20401;-52
2022/09/08 05:54:46;;;;;;;16.17;5.68;;;;;;;;;;4975482;28;20038;-53
2022/09/08 05:57:13;;;;;;;15.95;5.68;;;;;;;;;;4975478;28;20030;-54
2022/09/08 05:59:40;;;;;;;20.95;6.05;;;;;;;;;;4974985;28;20551;-54
2022/09/08 06:02:08;;;;;;;20.17;6.15;;;;;;;;;;4971271;28;20051;-51
2022/09/08 06:04:35;;;;;;;16.10;5.55;;;;;;;;;;4975183;28;20437;-50
2022/09/08 06:07:02;;;;;;;19.73;6.03;;;;;;;;;;4975189;28;20027;-49
2022/09/08 06:09:29;;;;;;;18.30;5.50;;;;;;;;;;4975080;28;20115;-50
2022/09/08 06:11:57;;;;;;;21.40;6.07;;;;;;;;;;4975093;28;20059;-49
2022/09/08 06:14:24;;;;;;;17.35;5.35;;;;;;;;;;4974886;28;20035;-52
2022/09/08 06:16:51;;;;;;;19.20;5.32;;;;;;;;;;4973607;28;20031;-49
2022/09/08 06:19:18;;;;;;;11.18;4.78;;;;;;;;;;4974935;28;20057;-50
2022/09/08 06:21:45;;;;;;;18.92;5.28;;;;;;;;;;4974946;28;20031;-50
2022/09/08 06:24:15;;;;;;;18.65;5.68;;;;;;;;;;4974514;28;20093;-49
2022/09/08 06:26:42;;;;;;;22.90;5.60;;;;;;;;;;4974737;28;20023;-48
2022/09/08 06:29:12;;;;;;;18.38;6.05;;;;;;;;;;4974505;28;20038;-52
2022/09/08 06:31:42;;;;;;;21.23;5.13;;;;;;;;;;4974791;28;20058;-50
2022/09/08 06:34:21;;;;;;;16.90;5.20;;;;;;;;;;4973597;28;20023;-48
2022/09/08 06:36:57;;;;;;;14.23;4.80;;;;;;;;;;4974685;28;20027;-48
2022/09/08 06:39:47;;;;;;;14.98;5.15;;;;;;;;;;4974317;28;20497;-50
2022/09/08 06:42:21;;;;;;;19.35;5.25;;;;;;;;;;4962540;28;20043;-48
2022/09/08 06:44:51;;;;;;;20.77;5.32;;;;;;;;;;4974588;28;20564;-48
2022/09/08 06:47:21;;;;;;;18.27;5.28;;;;;;;;;;4974320;28;20097;-49
2022/09/08 06:49:49;;;;;;;15.32;5.00;;;;;;;;;;4972880;28;20035;-50
2022/09/08 06:52:29;;;;;;;15.88;4.85;;;;;;;;;;4974428;28;20042;-54
2022/09/08 06:55:16;;;;;;;14.95;5.22;;;;;;;;;;4974371;28;20023;-50
2022/09/08 06:58:04;;;;;;;17.30;5.53;;;;;;;;;;4925993;28;20042;-52
2022/09/08 07:00:37;;;;;;;18.50;4.65;;;;;;;;;;4974128;28;20389;-50
2022/09/08 07:03:16;;;;;;;22.92;5.47;;;;;;;;;;4974208;28;20027;-50
2022/09/08 07:06:05;;;;;;;14.88;4.88;;;;;;;;;;4955442;28;20038;-53
2022/09/08 07:08:44;;;;;;;15.90;4.35;;;;;;;;;;4957486;28;20544;-48
2022/09/08 07:11:17;;;;;;;19.25;5.32;;;;;;;;;;4955934;28;20037;-48
2022/09/08 07:13:47;;;;;;;14.32;4.68;;;;;;;;;;4974032;28;20045;-48
2022/09/08 07:16:20;;;;;;;15.15;4.60;;;;;;;;;;4974001;28;20106;-49
2022/09/08 07:19:03;;;;;;;13.40;4.53;;;;;;;;;;4974096;28;20022;-51
2022/09/08 07:21:34;;;;;;;15.90;5.10;;;;;;;;;;4973957;28;20066;-49
2022/09/08 07:24:02;;;;;;;15.48;5.00;;;;;;;;;;4972522;28;20061;-48
2022/09/08 07:26:38;;;;;;;21.58;5.00;;;;;;;;;;4973844;28;20058;-49
2022/09/08 07:29:17;;;;;;;16.15;5.07;;;;;;;;;;4973858;28;20043;-53
2022/09/08 07:31:46;;;;;;;14.35;4.68;;;;;;;;;;4973913;28;20370;-49
2022/09/08 07:34:18;;;;;;;19.25;4.50;;;;;;;;;;4973860;28;20496;-53
2022/09/08 07:37:03;;;;;;;14.55;4.55;;;;;;;;;;4973785;28;20034;-49
2022/09/08 07:39:48;;;;;;;13.05;4.20;;;;;;;;;;4972599;28;20760;-57
2022/09/08 07:42:16;;;;;;;13.13;4.60;;;;;;;;;;4954620;29;20027;-52
2022/09/08 07:44:46;;;;;;;15.88;4.80;;;;;;;;;;4937284;29;20067;-51
2022/09/08 07:47:28;;;;;;;11.55;4.45;;;;;;;;;;4954638;29;20063;-53
2022/09/08 07:50:16;;;;;;;16.23;4.38;;;;;;;;;;4954349;29;20029;-53
2022/09/08 07:52:46;;;;;;;13.35;4.13;;;;;;;;;;4954419;29;20043;-51
2022/09/08 07:55:45;;;;;;;12.82;4.03;;;;;;;;;;4954375;29;20032;-50
2022/09/08 07:58:18;;;;;;;11.50;3.97;;;;;;;;;;4930236;28;20062;-53
2022/09/08 08:00:51;;;;;;;12.60;4.57;;;;;;;;;;4973590;28;20046;-50
2022/09/08 08:03:22;;;;;;;17.60;5.00;;;;;;;;;;4956565;28;20035;-52
2022/09/08 08:05:58;;;;;;;17.33;3.97;;;;;;;;;;4973636;28;20023;-50
2022/09/08 08:08:28;;;;;;;14.18;4.05;;;;;;;;;;4973504;28;20496;-52
2022/09/08 08:11:01;;;;;;;16.42;4.72;;;;;;;;;;4973372;28;20031;-51
2022/09/08 08:13:31;;;;;;;16.02;4.28;;;;;;;;;;4972167;28;20038;-52
2022/09/08 08:16:09;;;;;;;12.02;3.80;;;;;;;;;;4973489;28;20084;-53
2022/09/08 08:18:47;;;;;;;13.40;4.15;;;;;;;;;;4973393;28;20038;-50
2022/09/08 08:21:34;;;;;;;14.15;4.20;;;;;;;;;;4973487;28;20046;-51
2022/09/08 08:24:04;;;;;;;13.00;4.47;;;;;;;;;;4976968;28;20031;-53
2022/09/08 08:26:36;;;;;;;11.38;4.10;;;;;;;;;;4977017;28;20042;-52
2022/09/08 08:29:09;;;;;;;15.00;4.53;;;;;;;;;;4958347;28;20462;-48
2022/09/08 08:31:44;;;;;;;13.95;4.30;;;;;;;;;;4977040;28;20507;-51
2022/09/08 08:34:17;;;;;;;10.85;3.47;;;;;;;;;;4976847;28;20042;-48
2022/09/08 08:36:46;;;;;;;12.60;3.72;;;;;;;;;;4976889;28;20046;-48
2022/09/08 08:39:20;;;;;;;11.70;3.75;;;;;;;;;;4976537;28;20047;-49
2022/09/08 08:41:47;;;;;;;11.25;3.50;;;;;;;;;;4976767;28;20027;-48
2022/09/08 08:44:26;;;;;;;11.77;4.20;;;;;;;;;;4976691;28;20034;-48
2022/09/08 08:47:15;;;;;;;14.38;4.07;;;;;;;;;;4976321;28;20049;-49
2022/09/08 08:49:45;;;;;;;13.07;3.92;;;;;;;;;;4976486;28;20031;-49
2022/09/08 08:52:32;;;;;;;14.60;4.13;;;;;;;;;;4976668;28;20070;-48
2022/09/08 08:55:05;;;;;;;13.45;4.22;;;;;;;;;;4976345;28;20081;-49
2022/09/08 08:57:32;;;;;;;13.10;4.25;;;;;;;;;;4976567;28;20031;-49
2022/09/08 09:00:08;;;;;;;16.15;3.95;;;;;;;;;;4976383;28;20027;-48
2022/09/08 09:02:35;;;;;;;12.80;3.45;;;;;;;;;;4975172;28;20125;-49
2022/09/08 09:05:03;;;;;;;17.95;3.85;;;;;;;;;;4976365;28;20034;-48
2022/09/08 09:07:53;;;;;;;14.13;3.72;;;;;;;;;;4976213;28;20081;-49
2022/09/08 09:10:23;;;;;;;15.30;4.15;;;;;;;;;;4976162;28;20038;-50
2022/09/08 09:13:02;;;;;;;13.18;3.75;;;;;;;;;;4976227;28;20086;-56
2022/09/08 09:15:29;;;;;;;12.57;3.38;;;;;;;;;;4976094;28;20030;-48
2022/09/08 09:17:58;;;;;;;13.57;4.07;;;;;;;;;;4974877;28;20030;-53
2022/09/08 09:20:41;;;;;;;9.95;3.50;;;;;;;;;;4975893;28;20492;-51
2022/09/08 09:23:26;;;;;;;15.27;3.90;;;;;;;;;;4976111;28;20073;-52
2022/09/08 09:25:57;;;;;;;14.18;4.20;;;;;;;;;;4975954;28;20030;-54
2022/09/08 09:28:33;;;;;;;12.63;3.63;;;;;;;;;;4976076;28;20031;-48
2022/09/08 09:31:00;;;;;;;12.20;3.53;;;;;;;;;;4975669;28;20027;-49
2022/09/08 09:33:30;;;;;;;12.18;3.50;;;;;;;;;;4975093;28;20398;-51
2022/09/08 09:35:57;;;;;;;9.63;3.47;;;;;;;;;;4974760;28;20042;-55
2022/09/08 09:38:33;;;;;;;12.05;3.58;;;;;;;;;;4975619;28;20039;-54
2022/09/08 09:41:06;;;;;;;19.67;3.67;;;;;;;;;;4975859;28;20031;-54
2022/09/08 09:43:43;;;;;;;15.95;4.22;;;;;;;;;;4958331;28;20457;-53
2022/09/08 09:46:13;;;;;;;15.25;3.70;;;;;;;;;;4975626;28;20121;-55
2022/09/08 09:48:51;;;;;;;16.60;3.70;;;;;;;;;;4975454;28;20038;-54
2022/09/08 09:51:36;;;;;;;12.00;3.88;;;;;;;;;;4974268;28;20496;-55
2022/09/08 09:54:03;;;;;;;12.20;3.72;;;;;;;;;;4975545;28;20058;-56
2022/09/08 09:56:33;;;;;;;13.05;3.70;;;;;;;;;;4975368;28;20042;-55
2022/09/08 09:59:06;;;;;;;13.10;3.83;;;;;;;;;;4975273;28;20057;-57
2022/09/08 10:01:52;;;;;;;15.32;3.50;;;;;;;;;;4975240;28;20456;-56
2022/09/08 10:04:22;;;;;;;11.75;3.63;;;;;;;;;;4975266;28;20111;-56
2022/09/08 10:07:07;;;;;;;14.85;3.75;;;;;;;;;;4973882;28;20090;-55
2022/09/08 10:09:46;;;;;;;13.43;4.10;;;;;;;;;;4974858;28;20405;-56
2022/09/08 10:12:20;;;;;;;9.25;2.95;;;;;;;;;;4975083;28;20030;-57
2022/09/08 10:14:46;;;;;;;9.55;3.40;;;;;;;;;;4975075;28;20038;-56
2022/09/08 10:17:16;;;;;;;11.63;3.50;;;;;;;;;;4974977;28;20019;-57
2022/09/08 10:19:53;;;;;;;11.65;3.38;;;;;;;;;;4976403;28;20026;-55
2022/09/08 10:22:40;;;;;;;11.93;3.75;;;;;;;;;;4980193;28;20445;-54
2022/09/08 10:25:33;;;;;;;19.17;4.22;;;;;;;;;;4984566;28;20027;-52
2022/09/08 10:28:10;;;;;;;16.73;3.38;;;;;;;;;;4985627;28;20030;-55
2022/09/08 10:30:55;;;;;;;10.07;3.15;;;;;;;;;;4994269;28;20034;-56
2022/09/08 10:33:34;;;;;;;13.45;3.85;;;;;;;;;;4994051;28;20046;-57
2022/09/08 10:36:08;;;;;;;16.13;3.40;;;;;;;;;;4994104;28;20114;-56
2022/09/08 10:38:44;;;;;;;11.32;2.95;;;;;;;;;;4992444;28;20512;-57
2022/09/08 10:41:23;;;;;;;15.32;3.97;;;;;;;;;;4975062;28;20077;-57
2022/09/08 10:44:11;;;;;;;13.27;2.85;;;;;;;;;;4974600;28;20027;-57
2022/09/08 10:46:38;;;;;;;15.75;3.55;;;;;;;;;;4973657;28;20022;-57
2022/09/08 10:49:17;;;;;;;11.70;3.53;;;;;;;;;;4974266;28;20062;-55
2022/09/08 10:51:47;;;;;;;11.88;3.53;;;;;;;;;;4974362;28;20038;-57
2022/09/08 10:54:34;;;;;;;14.65;3.72;;;;;;;;;;4974357;28;20023;-57
2022/09/08 10:57:06;;;;;;;9.30;3.35;;;;;;;;;;4972875;28;20101;-56
2022/09/08 10:59:39;;;;;;;16.45;4.18;;;;;;;;;;4974148;28;20070;-57
2022/09/08 11:02:25;;;;;;;16.40;3.50;;;;;;;;;;4974159;28;20409;-57
2022/09/08 11:05:09;;;;;;;15.02;3.15;;;;;;;;;;4956772;28;20027;-56
2022/09/08 11:07:51;;;;;;;12.60;3.15;;;;;;;;;;4974199;28;20042;-55
2022/09/08 11:10:29;;;;;;;9.43;2.93;;;;;;;;;;4956656;28;20038;-57
2022/09/08 11:12:59;;;;;;;14.38;3.45;;;;;;;;;;4972871;28;20077;-55
2022/09/08 11:15:46;;;;;;;8.43;2.83;;;;;;;;;;4974109;28;20039;-56
2022/09/08 11:18:48;;;;;;;14.82;3.63;;;;;;;;;;4973904;28;20177;-56
2022/09/08 11:21:26;;;;;;;12.80;3.47;;;;;;;;;;4876950;29;20204;-56
2022/09/08 11:24:02;;;;;;;15.23;3.67;;;;;;;;;;4962214;28;20035;-56
2022/09/08 11:26:39;;;;;;;12.55;3.05;;;;;;;;;;4956588;28;20442;-56
2022/09/08 11:29:10;;;;;;;10.80;3.03;;;;;;;;;;4954794;28;20081;-52
2022/09/08 11:31:44;;;;;;;13.32;3.30;;;;;;;;;;4973797;28;20041;-53
2022/09/08 11:34:17;;;;;;;12.35;3.40;;;;;;;;;;4973915;28;20035;-51
2022/09/08 11:36:47;;;;;;;12.70;3.60;;;;;;;;;;4973831;28;20050;-52
2022/09/08 11:39:24;;;;;;;9.88;3.15;;;;;;;;;;4973511;28;20125;-53
2022/09/08 11:41:57;;;;;;;11.23;3.63;;;;;;;;;;4973235;28;20062;-51
2022/09/08 11:44:42;;;;;;;13.43;3.38;;;;;;;;;;4970901;28;20547;-55
2022/09/08 11:47:35;;;;;;;11.80;3.60;;;;;;;;;;4991596;28;20030;-56
2022/09/08 11:50:05;;;;;;;15.43;2.80;;;;;;;;;;4977073;28;20116;-54
2022/09/08 11:52:50;;;;;;;17.00;3.33;;;;;;;;;;4978532;28;20460;-52
2022/09/08 11:55:26;;;;;;;16.48;3.75;;;;;;;;;;4976281;28;20097;-56
2022/09/08 11:58:13;;;;;;;17.08;3.72;;;;;;;;;;4973930;28;20027;-54
2022/09/08 12:00:58;;;;;;;19.23;4.05;;;;;;;;;;4966536;28;20039;-54
2022/09/08 12:03:44;;;;;;;18.20;3.78;;;;;;;;;;4958672;28;20120;-55
2022/09/08 12:06:14;;;;;;;18.13;4.07;;;;;;;;;;4978583;28;20194;-55
2022/09/08 12:08:53;;;;;;;15.75;3.67;;;;;;;;;;4975449;28;20108;-49
2022/09/08 12:11:28;;;;;;;17.35;3.67;;;;;;;;;;4980000;28;20397;-53
2022/09/08 12:14:10;;;;;;;19.10;3.78;;;;;;;;;;4976146;28;20035;-54
2022/09/08 12:16:50;;;;;;;20.48;3.65;;;;;;;;;;4976402;28;20047;-56
2022/09/08 12:19:26;;;;;;;18.23;3.83;;;;;;;;;;4978103;28;20034;-58
2022/09/08 12:22:06;;;;;;;20.55;4.13;;;;;;;;;;4981920;28;20507;-58
2022/09/08 12:24:36;;;;;;;25.50;4.32;;;;;;;;;;4974690;28;20035;-53
2022/09/08 12:27:16;;;;;;;23.30;3.97;;;;;;;;;;4977587;28;20121;-53
2022/09/08 12:30:00;;;;;;;25.02;4.05;;;;;;;;;;4980431;28;20034;-55
2022/09/08 12:32:42;;;;;;;31.92;4.25;;;;;;;;;;4967982;28;20436;-57
2022/09/08 12:35:12;;;;;;;29.30;4.57;;;;;;;;;;4976531;28;20045;-55
2022/09/08 12:37:39;;;;;;;37.03;4.43;;;;;;;;;;4976026;28;20029;-56
2022/09/08 12:40:19;;;;;;;27.70;4.28;;;;;;;;;;4976521;28;20037;-59
2022/09/08 12:42:46;;;;;;;28.88;4.25;;;;;;;;;;4978978;28;20370;-56
2022/09/08 12:45:21;;;;;;;31.83;4.32;;;;;;;;;;4976231;28;20111;-53
2022/09/08 12:47:56;;;;;;;19.52;3.72;;;;;;;;;;4983147;28;20629;-50
2022/09/08 12:50:55;;;;;;;27.63;4.55;;;;;;;;;;4979863;28;20038;-51
2022/09/08 12:53:40;;;;;;;26.50;4.32;;;;;;;;;;4942142;28;20031;-53
2022/09/08 12:56:13;;;;;;;24.25;4.30;;;;;;;;;;4977363;28;20475;-52
2022/09/08 12:58:55;;;;;;;23.90;4.28;;;;;;;;;;4985299;28;20034;-54
2022/09/08 13:01:34;;;;;;;23.65;4.40;;;;;;;;;;4995843;28;20034;-53
2022/09/08 13:04:21;;;;;;;23.75;4.55;;;;;;;;;;4994661;28;20027;-54
2022/09/08 13:07:02;;;;;;;24.33;4.38;;;;;;;;;;4975548;28;20772;-56
2022/09/08 13:09:32;;;;;;;22.10;3.63;;;;;;;;;;4975040;28;20078;-58
2022/09/08 13:12:11;;;;;;;22.40;3.70;;;;;;;;;;4976195;28;20035;-56
2022/09/08 13:14:41;;;;;;;31.02;4.28;;;;;;;;;;4976292;28;20077;-53
2022/09/08 13:17:14;;;;;;;25.55;4.55;;;;;;;;;;4983614;28;20480;-53
2022/09/08 13:20:00;;;;;;;22.20;4.18;;;;;;;;;;4975748;28;20078;-57
2022/09/08 13:22:54;;;;;;;36.38;4.60;;;;;;;;;;4974890;28;20157;-53
2022/09/08 13:25:24;;;;;;;42.88;4.78;;;;;;;;;;4966426;28;20500;-51
2022/09/08 13:28:09;;;;;;;29.77;4.35;;;;;;;;;;4973900;28;20042;-54
2022/09/08 13:30:56;;;;;;;24.33;3.78;;;;;;;;;;4974027;28;20508;-53
2022/09/08 13:33:43;;;;;;;24.20;3.95;;;;;;;;;;4974419;28;20027;-51
2022/09/08 13:36:22;;;;;;;20.88;4.07;;;;;;;;;;4941609;28;20038;-55
2022/09/08 13:38:50;;;;;;;19.48;3.35;;;;;;;;;;4972082;28;20051;-56
2022/09/08 13:41:34;;;;;;;19.02;3.85;;;;;;;;;;4974656;28;20030;-53
2022/09/08 13:44:20;;;;;;;19.83;3.65;;;;;;;;;;4956825;28;20049;-57
2022/09/08 13:46:55;;;;;;;21.38;4.13;;;;;;;;;;4957264;28;20062;-57
2022/09/08 13:49:26;;;;;;;23.30;4.05;;;;;;;;;;4953791;28;20027;-55
2022/09/08 13:52:11;;;;;;;14.88;3.47;;;;;;;;;;4974548;28;20026;-53
2022/09/08 13:54:38;;;;;;;20.60;3.85;;;;;;;;;;4973388;28;20034;-57
2022/09/08 13:57:16;;;;;;;27.33;4.20;;;;;;;;;;4974321;28;20085;-58
2022/09/08 13:59:47;;;;;;;21.05;3.72;;;;;;;;;;4972137;28;20031;-56
2022/09/08 14:02:29;;;;;;;30.52;5.00;;;;;;;;;;4969911;28;20023;-54
2022/09/08 14:05:04;;;;;;;20.33;3.72;;;;;;;;;;4971595;28;20042;-58
2022/09/08 14:07:35;;;;;;;24.42;3.85;;;;;;;;;;4973499;28;20030;-58
2022/09/08 14:10:12;;;;;;;22.77;3.22;;;;;;;;;;4973475;28;20047;-58
2022/09/08 14:12:49;;;;;;;11.82;3.38;;;;;;;;;;4974031;28;20034;-57
2022/09/08 14:15:21;;;;;;;17.83;3.70;;;;;;;;;;4973714;28;20041;-55
2022/09/08 14:18:03;;;;;;;23.42;4.32;;;;;;;;;;4973782;28;20086;-49
2022/09/08 14:20:34;;;;;;;17.63;3.33;;;;;;;;;;4973275;28;20097;-55
2022/09/08 14:23:13;;;;;;;15.75;3.22;;;;;;;;;;4973735;28;20042;-56
2022/09/08 14:25:41;;;;;;;18.65;3.55;;;;;;;;;;4972970;28;20109;-55
2022/09/08 14:28:13;;;;;;;16.92;3.15;;;;;;;;;;4951416;28;20508;-57
2022/09/08 14:30:58;;;;;;;17.20;3.50;;;;;;;;;;4973429;28;20073;-57
2022/09/08 14:33:28;;;;;;;22.23;3.67;;;;;;;;;;4956197;28;20046;-52
2022/09/08 14:36:11;;;;;;;27.52;4.40;;;;;;;;;;4963744;28;20382;-56
2022/09/08 14:39:05;;;;;;;20.02;3.95;;;;;;;;;;4961612;28;20050;-52
2022/09/08 14:41:35;;;;;;;24.25;4.53;;;;;;;;;;4973885;28;20158;-54
2022/09/08 14:44:11;;;;;;;24.95;4.43;;;;;;;;;;4972730;28;20027;-55
2022/09/08 14:46:49;;;;;;;40.33;5.05;;;;;;;;;;4973659;28;20030;-55
2022/09/08 14:49:29;;;;;;;51.72;6.35;;;;;;;;;;4970730;28;20109;-60
2022/09/08 14:52:10;;;;;;;41.80;6.53;;;;;;;;;;4960702;28;20038;-59
2022/09/08 14:54:57;;;;;;;47.85;8.05;;;;;;;;;;4973253;28;20046;-57
2022/09/08 14:57:30;;;;;;;39.13;7.80;;;;;;;;;;4973766;28;20572;-52
2022/09/08 15:00:14;;;;;;;51.25;9.60;;;;;;;;;;4964429;28;20037;-54
2022/09/08 15:02:52;;;;;;;65.00;9.65;;;;;;;;;;4959510;28;20078;-58
2022/09/08 15:05:24;;;;;;;47.55;8.30;;;;;;;;;;4966274;28;20705;-58
2022/09/08 15:08:04;;;;;;;32.75;7.07;;;;;;;;;;4964184;28;20467;-49
2022/09/08 15:10:57;;;;;;;34.70;7.50;;;;;;;;;;4973002;28;20141;-57
2022/09/08 15:13:53;;;;;;;41.58;7.43;;;;;;;;;;4951195;28;20516;-52
2022/09/08 15:16:30;;;;;;;36.15;7.60;;;;;;;;;;4950358;28;20548;-55
2022/09/08 15:19:03;;;;;;;33.90;7.47;;;;;;;;;;4972983;28;20031;-58